Time;durP1;ratioP1;P1;durP2;ratioP2;P2;SDS_P1;SDS_P2;PMS_P1;PMS_P2;Temp;Humidity;BMP_temperature;BMP_pressure;BME280_temperature;BME280_humidity;BME280_pressure;Samples;Min_cycle;Max_cycle;Signal;HPM_P1;HPM_P2
2023/04/02 00:01:26;;;;;;;9.00;2.30;;;;;;;;;;5085936;28;20482;-71
2023/04/02 00:04:07;;;;;;;13.43;2.70;;;;;;;;;;5079864;28;20448;-71
2023/04/02 00:06:43;;;;;;;9.05;2.47;;;;;;;;;;5080554;28;20898;-71
2023/04/02 00:09:37;;;;;;;9.10;2.22;;;;;;;;;;5081266;28;20053;-71
2023/04/02 00:12:16;;;;;;;6.50;2.05;;;;;;;;;;5020910;28;20076;-71
2023/04/02 00:14:47;;;;;;;9.13;2.03;;;;;;;;;;5090474;28;20423;-71
2023/04/02 00:17:14;;;;;;;8.25;2.05;;;;;;;;;;5082313;28;20052;-71
2023/04/02 00:19:43;;;;;;;6.10;2.08;;;;;;;;;;5089366;28;20402;-71
2023/04/02 00:22:15;;;;;;;5.65;1.98;;;;;;;;;;5071557;28;20060;-71
2023/04/02 00:24:42;;;;;;;9.38;2.22;;;;;;;;;;5085079;28;20449;-71
2023/04/02 00:27:11;;;;;;;9.13;2.60;;;;;;;;;;5087197;28;20502;-71
2023/04/02 00:29:45;;;;;;;6.57;2.20;;;;;;;;;;5085615;28;20399;-71
2023/04/02 00:32:14;;;;;;;9.57;1.98;;;;;;;;;;5088141;28;20440;-71
2023/04/02 00:34:42;;;;;;;9.10;2.35;;;;;;;;;;5089129;28;20071;-71
2023/04/02 00:37:17;;;;;;;9.57;1.83;;;;;;;;;;5082632;28;20505;-71
2023/04/02 00:39:44;;;;;;;6.07;2.15;;;;;;;;;;5088242;28;20052;-71
2023/04/02 00:42:12;;;;;;;8.05;2.25;;;;;;;;;;5082004;28;20052;-71
2023/04/02 00:44:41;;;;;;;8.88;1.70;;;;;;;;;;5085737;28;20640;-71
2023/04/02 00:47:11;;;;;;;10.32;2.13;;;;;;;;;;5088425;28;20124;-71
2023/04/02 00:49:40;;;;;;;9.57;2.10;;;;;;;;;;5088365;28;20158;-71
2023/04/02 00:52:08;;;;;;;7.68;2.20;;;;;;;;;;5065711;28;20044;-71
2023/04/02 00:54:41;;;;;;;6.05;1.85;;;;;;;;;;5091208;28;20101;-71
2023/04/02 00:57:15;;;;;;;5.68;1.58;;;;;;;;;;5067302;28;20713;-71
2023/04/02 00:59:42;;;;;;;;;;;;;;;;;;5087433;28;20075;-71
2023/04/02 01:02:25;;;;;;;7.40;1.70;;;;;;;;;;5089018;28;19928;-71
2023/04/02 01:04:53;;;;;;;9.93;2.20;;;;;;;;;;5086905;28;20119;-71
2023/04/02 01:07:24;;;;;;;5.38;1.92;;;;;;;;;;5083547;28;20056;-71
2023/04/02 01:10:01;;;;;;;8.00;2.20;;;;;;;;;;5089468;28;20056;-71
2023/04/02 01:12:32;;;;;;;10.70;2.00;;;;;;;;;;5087290;28;20475;-71
2023/04/02 01:15:04;;;;;;;9.45;2.20;;;;;;;;;;5083721;28;20154;-71
2023/04/02 01:17:37;;;;;;;6.60;1.65;;;;;;;;;;5086027;28;20059;-71
2023/04/02 01:20:25;;;;;;;6.88;1.92;;;;;;;;;;5083612;28;20143;-71
2023/04/02 01:22:55;;;;;;;6.78;1.75;;;;;;;;;;5082313;28;20115;-71
2023/04/02 01:25:27;;;;;;;4.63;1.70;;;;;;;;;;5085771;28;20438;-71
2023/04/02 01:27:57;;;;;;;8.27;1.70;;;;;;;;;;5080499;28;20050;-71
2023/04/02 01:30:25;;;;;;;10.45;1.90;;;;;;;;;;5088417;28;20044;-71
2023/04/02 01:32:53;;;;;;;3.33;1.60;;;;;;;;;;5081002;28;20058;-71
2023/04/02 01:35:22;;;;;;;5.35;1.85;;;;;;;;;;5085081;28;20048;-71
2023/04/02 01:37:52;;;;;;;16.42;2.47;;;;;;;;;;5086672;28;20048;-71
2023/04/02 01:40:29;;;;;;;4.75;1.50;;;;;;;;;;5079369;28;20056;-71
2023/04/02 01:42:59;;;;;;;18.40;2.08;;;;;;;;;;5067481;28;20105;-71
2023/04/02 01:45:29;;;;;;;8.82;1.88;;;;;;;;;;5084047;28;20546;-71
2023/04/02 01:47:56;;;;;;;7.13;1.80;;;;;;;;;;5079324;28;20407;-71
2023/04/02 01:50:30;;;;;;;9.93;1.80;;;;;;;;;;5083504;28;20051;-71
2023/04/02 01:52:58;;;;;;;13.52;2.28;;;;;;;;;;5084587;28;20056;-71
2023/04/02 01:55:30;;;;;;;5.13;1.60;;;;;;;;;;5084973;28;20132;-71
2023/04/02 01:57:58;;;;;;;7.22;1.35;;;;;;;;;;5080662;28;20506;-71
2023/04/02 02:00:26;;;;;;;7.35;1.50;;;;;;;;;;5087468;28;20530;-71
2023/04/02 02:02:55;;;;;;;8.18;1.60;;;;;;;;;;5064065;28;20063;-71
2023/04/02 02:05:23;;;;;;;6.55;1.73;;;;;;;;;;5083673;28;20044;-71
2023/04/02 02:07:51;;;;;;;4.07;1.25;;;;;;;;;;5065577;28;20079;-71
2023/04/02 02:10:19;;;;;;;14.77;1.70;;;;;;;;;;5082467;28;20056;-71
2023/04/02 02:12:47;;;;;;;4.72;1.33;;;;;;;;;;5085572;28;20044;-72
2023/04/02 02:15:16;;;;;;;9.55;1.42;;;;;;;;;;5070005;28;20071;-71
2023/04/02 02:17:43;;;;;;;5.55;1.23;;;;;;;;;;5078949;28;20503;-71
2023/04/02 02:20:13;;;;;;;7.80;1.33;;;;;;;;;;5085430;28;20058;-71
2023/04/02 02:22:44;;;;;;;8.93;2.33;;;;;;;;;;5087024;28;20062;-71
2023/04/02 02:25:12;;;;;;;3.75;1.85;;;;;;;;;;5069185;28;20419;-71
2023/04/02 02:27:46;;;;;;;5.80;1.83;;;;;;;;;;5085581;28;20566;-71
2023/04/02 02:30:16;;;;;;;5.55;1.38;;;;;;;;;;5067553;28;20052;-71
2023/04/02 02:32:48;;;;;;;6.05;1.55;;;;;;;;;;5079808;28;20131;-71
2023/04/02 02:35:19;;;;;;;6.70;1.33;;;;;;;;;;5077846;28;20059;-71
2023/04/02 02:37:48;;;;;;;7.53;1.70;;;;;;;;;;5088764;28;20047;-71
2023/04/02 02:40:17;;;;;;;4.88;1.40;;;;;;;;;;5083896;28;20102;-71
2023/04/02 02:42:48;;;;;;;6.55;1.40;;;;;;;;;;5070797;28;20143;-71
2023/04/02 02:45:20;;;;;;;8.40;1.52;;;;;;;;;;5084539;28;20425;-71
2023/04/02 02:47:48;;;;;;;7.50;1.30;;;;;;;;;;5086271;28;20040;-71
2023/04/02 02:50:20;;;;;;;7.72;1.35;;;;;;;;;;5085849;28;20055;-71
2023/04/02 02:52:51;;;;;;;5.25;1.67;;;;;;;;;;5087505;28;20048;-71
2023/04/02 02:55:19;;;;;;;7.00;1.10;;;;;;;;;;5085485;28;20127;-71
2023/04/02 02:57:49;;;;;;;7.00;1.40;;;;;;;;;;5086662;28;20044;-71
2023/04/02 03:00:18;;;;;;;5.05;1.10;;;;;;;;;;5087719;28;20319;-71
2023/04/02 03:02:46;;;;;;;7.10;1.33;;;;;;;;;;5086575;28;20047;-71
2023/04/02 03:05:19;;;;;;;7.18;1.05;;;;;;;;;;5082552;28;20052;-71
2023/04/02 03:07:46;;;;;;;7.80;1.10;;;;;;;;;;5082177;28;20072;-69
2023/04/02 03:10:15;;;;;;;6.50;1.17;;;;;;;;;;5086195;28;20060;-70
2023/04/02 03:12:45;;;;;;;7.72;1.88;;;;;;;;;;5085191;28;20052;-70
2023/04/02 03:15:17;;;;;;;6.85;1.20;;;;;;;;;;5069791;28;20142;-70
2023/04/02 03:17:46;;;;;;;6.22;1.10;;;;;;;;;;5062967;28;20059;-70
2023/04/02 03:20:16;;;;;;;7.85;1.52;;;;;;;;;;5067891;28;20067;-70
2023/04/02 03:22:47;;;;;;;4.80;0.90;;;;;;;;;;5069748;28;20732;-70
2023/04/02 03:25:22;;;;;;;8.98;1.30;;;;;;;;;;5084099;28;20064;-70
2023/04/02 03:27:54;;;;;;;9.20;1.25;;;;;;;;;;5079840;28;20040;-70
2023/04/02 03:30:28;;;;;;;4.60;1.10;;;;;;;;;;5078659;28;20131;-70
2023/04/02 03:32:58;;;;;;;7.65;1.20;;;;;;;;;;5080951;28;20127;-70
2023/04/02 03:35:29;;;;;;;6.60;1.17;;;;;;;;;;5076260;28;20055;-70
2023/04/02 03:38:01;;;;;;;5.20;0.80;;;;;;;;;;5062428;28;20118;-70
2023/04/02 03:40:31;;;;;;;6.80;1.02;;;;;;;;;;5086453;28;20071;-70
2023/04/02 03:43:00;;;;;;;6.72;1.30;;;;;;;;;;5081825;28;20051;-70
2023/04/02 03:45:29;;;;;;;9.07;1.50;;;;;;;;;;5062000;28;20087;-70
2023/04/02 03:47:59;;;;;;;5.60;1.30;;;;;;;;;;5084173;28;20422;-70
2023/04/02 03:50:29;;;;;;;13.02;1.83;;;;;;;;;;5086245;28;20078;-70
2023/04/02 03:52:59;;;;;;;5.82;0.90;;;;;;;;;;5086108;28;20050;-70
2023/04/02 03:55:27;;;;;;;9.30;1.10;;;;;;;;;;5089399;28;20051;-71
2023/04/02 03:57:59;;;;;;;6.53;1.10;;;;;;;;;;5066251;28;20048;-70
2023/04/02 04:00:29;;;;;;;7.85;1.00;;;;;;;;;;5086912;28;20044;-70
2023/04/02 04:02:59;;;;;;;7.07;1.15;;;;;;;;;;5086891;28;20075;-70
2023/04/02 04:05:29;;;;;;;7.60;1.35;;;;;;;;;;5088340;28;20071;-70
2023/04/02 04:08:00;;;;;;;6.13;1.20;;;;;;;;;;5066812;28;20071;-70
2023/04/02 04:10:29;;;;;;;5.18;1.08;;;;;;;;;;5085949;28;20047;-70
2023/04/02 04:13:02;;;;;;;7.00;1.27;;;;;;;;;;5085761;28;20338;-70
2023/04/02 04:15:31;;;;;;;4.75;1.50;;;;;;;;;;5088872;28;20075;-70
2023/04/02 04:18:01;;;;;;;6.57;1.58;;;;;;;;;;5088819;28;20410;-70
2023/04/02 04:20:32;;;;;;;4.38;1.00;;;;;;;;;;5090561;28;20137;-70
2023/04/02 04:23:09;;;;;;;3.83;1.00;;;;;;;;;;5087855;28;20048;-70
2023/04/02 04:25:38;;;;;;;4.05;0.90;;;;;;;;;;5085028;28;20520;-70
2023/04/02 04:28:11;;;;;;;7.05;1.20;;;;;;;;;;5069766;28;20143;-70
2023/04/02 04:30:45;;;;;;;6.90;1.00;;;;;;;;;;5089882;28;20502;-70
2023/04/02 04:33:15;;;;;;;3.10;1.00;;;;;;;;;;5088971;28;20079;-70
2023/04/02 04:35:47;;;;;;;10.23;1.48;;;;;;;;;;5084595;28;20066;-70
2023/04/02 04:38:16;;;;;;;5.18;1.20;;;;;;;;;;5085562;28;20062;-70
2023/04/02 04:40:51;;;;;;;6.38;1.10;;;;;;;;;;5087841;28;20516;-70
2023/04/02 04:43:21;;;;;;;3.78;0.95;;;;;;;;;;5079145;28;20051;-70
2023/04/02 04:45:50;;;;;;;7.32;1.25;;;;;;;;;;5087091;28;20576;-70
2023/04/02 04:48:21;;;;;;;7.78;1.38;;;;;;;;;;5086757;28;20052;-70
2023/04/02 04:50:49;;;;;;;6.18;1.33;;;;;;;;;;5087332;28;20040;-70
2023/04/02 04:53:18;;;;;;;6.75;1.40;;;;;;;;;;5084985;28;20048;-70
2023/04/02 04:55:50;;;;;;;5.45;1.48;;;;;;;;;;5085884;28;20128;-70
2023/04/02 04:58:21;;;;;;;5.63;1.53;;;;;;;;;;5082059;28;20128;-70
2023/04/02 05:00:53;;;;;;;10.13;1.20;;;;;;;;;;5089325;28;20051;-70
2023/04/02 05:03:24;;;;;;;7.47;1.42;;;;;;;;;;5085647;28;20044;-70
2023/04/02 05:05:52;;;;;;;8.77;1.00;;;;;;;;;;5087276;28;20407;-70
2023/04/02 05:08:22;;;;;;;10.48;1.20;;;;;;;;;;5084535;28;20059;-70
2023/04/02 05:10:52;;;;;;;5.90;1.27;;;;;;;;;;5086976;28;20082;-70
2023/04/02 05:13:23;;;;;;;6.93;1.10;;;;;;;;;;5086109;28;20052;-70
2023/04/02 05:15:53;;;;;;;9.80;1.50;;;;;;;;;;5090155;28;20048;-70
2023/04/02 05:18:25;;;;;;;6.57;1.13;;;;;;;;;;5086261;28;20047;-70
2023/04/02 05:20:55;;;;;;;7.07;1.02;;;;;;;;;;5088128;28;20067;-70
2023/04/02 05:23:25;;;;;;;5.25;1.05;;;;;;;;;;5086112;28;20054;-70
2023/04/02 05:25:57;;;;;;;7.30;1.08;;;;;;;;;;5087395;28;20051;-70
2023/04/02 05:28:27;;;;;;;8.23;1.10;;;;;;;;;;5067299;28;20052;-70
2023/04/02 05:30:56;;;;;;;7.90;1.08;;;;;;;;;;5088954;28;20048;-70
2023/04/02 05:33:25;;;;;;;8.40;1.27;;;;;;;;;;5087667;28;20052;-70
2023/04/02 05:35:56;;;;;;;5.95;1.38;;;;;;;;;;5068829;28;20052;-70
2023/04/02 05:38:25;;;;;;;7.43;1.30;;;;;;;;;;5088226;28;20066;-70
2023/04/02 05:40:59;;;;;;;6.68;1.25;;;;;;;;;;5084950;28;20094;-70
2023/04/02 05:43:27;;;;;;;9.50;1.50;;;;;;;;;;5068384;28;20121;-70
2023/04/02 05:45:55;;;;;;;7.53;1.20;;;;;;;;;;5084580;28;20044;-70
2023/04/02 05:48:26;;;;;;;9.80;1.20;;;;;;;;;;5080916;28;20479;-70
2023/04/02 05:50:55;;;;;;;8.57;1.30;;;;;;;;;;5067107;28;20052;-70
2023/04/02 05:53:24;;;;;;;6.50;1.13;;;;;;;;;;5088714;28;20460;-70
2023/04/02 05:55:53;;;;;;;5.88;1.20;;;;;;;;;;5087294;28;20542;-70
2023/04/02 05:58:26;;;;;;;4.45;0.80;;;;;;;;;;5080801;28;20044;-70
2023/04/02 06:01:16;;;;;;;4.82;0.93;;;;;;;;;;5079904;28;20624;-70
2023/04/02 06:03:47;;;;;;;5.15;0.95;;;;;;;;;;5079786;28;20044;-70
2023/04/02 06:06:17;;;;;;;3.55;0.80;;;;;;;;;;5084358;28;20060;-70
2023/04/02 06:08:49;;;;;;;4.20;0.75;;;;;;;;;;5081817;28;20052;-70
2023/04/02 06:11:19;;;;;;;3.60;0.80;;;;;;;;;;5080867;28;20697;-69
2023/04/02 06:13:48;;;;;;;4.35;0.82;;;;;;;;;;5082436;28;20048;-70
2023/04/02 06:16:16;;;;;;;4.57;0.93;;;;;;;;;;5084983;28;20083;-71
2023/04/02 06:18:44;;;;;;;6.25;0.98;;;;;;;;;;5080086;28;20055;-69
2023/04/02 06:21:13;;;;;;;8.43;0.90;;;;;;;;;;5080849;28;20053;-70
2023/04/02 06:23:42;;;;;;;3.05;0.88;;;;;;;;;;5083696;28;20044;-70
2023/04/02 06:26:19;;;;;;;3.45;0.90;;;;;;;;;;5084412;28;20058;-70
2023/04/02 06:28:49;;;;;;;8.50;0.90;;;;;;;;;;5077922;28;20608;-70
2023/04/02 06:31:21;;;;;;;5.13;0.90;;;;;;;;;;5077316;28;20048;-69
2023/04/02 06:33:51;;;;;;;5.47;0.70;;;;;;;;;;5078315;28;20055;-69
2023/04/02 06:36:18;;;;;;;3.88;0.75;;;;;;;;;;5081579;28;20077;-70
2023/04/02 06:38:47;;;;;;;2.75;0.70;;;;;;;;;;5083349;28;20041;-70
2023/04/02 06:41:18;;;;;;;4.68;0.80;;;;;;;;;;5080554;28;20052;-70
2023/04/02 06:43:47;;;;;;;8.20;0.93;;;;;;;;;;5081753;28;20051;-70
2023/04/02 06:46:19;;;;;;;3.35;0.82;;;;;;;;;;5081831;28;20403;-70
2023/04/02 06:48:48;;;;;;;5.80;1.00;;;;;;;;;;5079577;28;20039;-70
2023/04/02 06:51:16;;;;;;;3.17;0.70;;;;;;;;;;5083582;28;20454;-70
2023/04/02 06:53:44;;;;;;;4.95;0.73;;;;;;;;;;5079420;28;20036;-69
2023/04/02 06:56:19;;;;;;;6.43;0.90;;;;;;;;;;5077565;28;20136;-69
2023/04/02 06:58:46;;;;;;;5.07;0.55;;;;;;;;;;5083904;28;20048;-70
2023/04/02 07:01:17;;;;;;;3.25;0.65;;;;;;;;;;5085170;28;20048;-71
2023/04/02 07:03:44;;;;;;;3.50;0.60;;;;;;;;;;5082811;28;20043;-68
2023/04/02 07:06:15;;;;;;;2.30;0.50;;;;;;;;;;5080405;28;20053;-70
2023/04/02 07:08:42;;;;;;;5.32;0.63;;;;;;;;;;5081133;28;20426;-69
2023/04/02 07:11:10;;;;;;;4.55;0.77;;;;;;;;;;5080143;28;20051;-70
2023/04/02 07:13:37;;;;;;;6.50;0.77;;;;;;;;;;5081379;28;20415;-69
2023/04/02 07:16:05;;;;;;;5.13;0.77;;;;;;;;;;5085047;28;20047;-68
2023/04/02 07:18:34;;;;;;;2.35;0.60;;;;;;;;;;5083152;28;20479;-68
2023/04/02 07:21:02;;;;;;;4.68;0.60;;;;;;;;;;5066516;28;20047;-70
2023/04/02 07:23:29;;;;;;;2.90;0.82;;;;;;;;;;5078342;28;20044;-69
2023/04/02 07:25:57;;;;;;;5.07;1.08;;;;;;;;;;5082007;28;20077;-67
2023/04/02 07:28:25;;;;;;;5.40;0.50;;;;;;;;;;5085663;28;20487;-70
2023/04/02 07:30:52;;;;;;;2.95;0.60;;;;;;;;;;5077173;28;20437;-69
2023/04/02 07:33:21;;;;;;;3.33;0.68;;;;;;;;;;5079458;28;20055;-69
2023/04/02 07:35:50;;;;;;;4.95;0.77;;;;;;;;;;5079603;28;20130;-69
2023/04/02 07:38:17;;;;;;;6.72;0.70;;;;;;;;;;5084960;28;20055;-68
2023/04/02 07:40:44;;;;;;;4.32;1.08;;;;;;;;;;5085258;28;20490;-68
2023/04/02 07:43:12;;;;;;;5.68;1.05;;;;;;;;;;5080556;28;20487;-69
2023/04/02 07:45:39;;;;;;;6.53;0.82;;;;;;;;;;5065755;28;20130;-69
2023/04/02 07:48:07;;;;;;;3.85;0.63;;;;;;;;;;5079072;28;21689;-69
2023/04/02 07:50:34;;;;;;;6.03;0.80;;;;;;;;;;5086152;28;20398;-69
2023/04/02 07:53:03;;;;;;;4.50;0.77;;;;;;;;;;5083834;28;20093;-69
2023/04/02 07:55:30;;;;;;;4.53;0.70;;;;;;;;;;5083874;28;20123;-69
2023/04/02 07:57:59;;;;;;;4.40;0.68;;;;;;;;;;5077967;28;20395;-69
2023/04/02 08:00:27;;;;;;;4.05;0.60;;;;;;;;;;5081119;28;20043;-69
2023/04/02 08:02:55;;;;;;;5.45;0.70;;;;;;;;;;5083137;28;20052;-69
2023/04/02 08:05:22;;;;;;;4.55;0.93;;;;;;;;;;5084460;28;20048;-69
2023/04/02 08:07:54;;;;;;;5.43;0.70;;;;;;;;;;5080493;28;20048;-69
2023/04/02 08:10:23;;;;;;;6.20;0.80;;;;;;;;;;5083926;28;20045;-69
2023/04/02 08:12:51;;;;;;;5.60;0.70;;;;;;;;;;5085401;28;20055;-69
2023/04/02 08:15:18;;;;;;;5.03;0.70;;;;;;;;;;5078459;28;20060;-69
2023/04/02 08:17:46;;;;;;;4.05;1.08;;;;;;;;;;5085855;28;20051;-69
2023/04/02 08:20:16;;;;;;;7.90;1.10;;;;;;;;;;5085403;28;20153;-69
2023/04/02 08:22:44;;;;;;;5.28;0.80;;;;;;;;;;5083912;28;20127;-69
2023/04/02 08:25:11;;;;;;;6.07;0.65;;;;;;;;;;5083912;28;20052;-69
2023/04/02 08:27:40;;;;;;;5.82;1.00;;;;;;;;;;5084760;28;20471;-68
2023/04/02 08:30:08;;;;;;;6.05;0.90;;;;;;;;;;5078005;28;20044;-69
2023/04/02 08:32:36;;;;;;;4.20;0.70;;;;;;;;;;5066631;28;20635;-69
2023/04/02 08:35:03;;;;;;;6.20;0.85;;;;;;;;;;5067948;28;20054;-68
2023/04/02 08:37:31;;;;;;;3.63;0.90;;;;;;;;;;5088400;28;20040;-69
2023/04/02 08:39:58;;;;;;;7.50;1.23;;;;;;;;;;5088975;28;20135;-69
2023/04/02 08:42:30;;;;;;;3.22;1.15;;;;;;;;;;5085384;28;20502;-69
2023/04/02 08:45:06;;;;;;;3.20;1.00;;;;;;;;;;5086768;28;20052;-69
2023/04/02 08:47:36;;;;;;;4.88;1.02;;;;;;;;;;5082817;28;20071;-68
2023/04/02 08:50:05;;;;;;;4.05;0.90;;;;;;;;;;5071236;28;20051;-69
2023/04/02 08:52:34;;;;;;;4.20;1.00;;;;;;;;;;5089949;28;20545;-69
2023/04/02 08:55:02;;;;;;;4.45;0.70;;;;;;;;;;5089750;28;20482;-69
2023/04/02 08:57:35;;;;;;;6.63;0.90;;;;;;;;;;5086896;28;20043;-69
2023/04/02 09:00:09;;;;;;;3.45;0.70;;;;;;;;;;5082815;28;20079;-69
2023/04/02 09:02:38;;;;;;;6.18;0.93;;;;;;;;;;5084768;28;20052;-69
2023/04/02 09:05:07;;;;;;;7.22;1.10;;;;;;;;;;5065074;28;20135;-69
2023/04/02 09:07:34;;;;;;;2.53;0.60;;;;;;;;;;5085374;28;20046;-69
2023/04/02 09:10:03;;;;;;;6.75;0.80;;;;;;;;;;5087762;28;20148;-69
2023/04/02 09:12:31;;;;;;;7.85;0.60;;;;;;;;;;5085886;28;20052;-69
2023/04/02 09:15:06;;;;;;;2.03;0.50;;;;;;;;;;5086948;28;20056;-69
2023/04/02 09:17:36;;;;;;;6.43;0.90;;;;;;;;;;5081648;28;20052;-69
2023/04/02 09:20:08;;;;;;;3.05;0.80;;;;;;;;;;5085263;28;20052;-69
2023/04/02 09:22:37;;;;;;;4.00;0.63;;;;;;;;;;5085834;28;20101;-69
2023/04/02 09:25:06;;;;;;;3.65;0.60;;;;;;;;;;5087790;28;20139;-69
2023/04/02 09:27:34;;;;;;;3.25;0.38;;;;;;;;;;5080642;28;20044;-69
2023/04/02 09:30:03;;;;;;;3.38;0.40;;;;;;;;;;5085469;28;20623;-69
2023/04/02 09:32:46;;;;;;;2.67;0.60;;;;;;;;;;5064397;28;20056;-68
2023/04/02 09:35:15;;;;;;;2.72;0.77;;;;;;;;;;5087736;28;20071;-69
2023/04/02 09:37:43;;;;;;;4.93;0.82;;;;;;;;;;5067761;28;20059;-69
2023/04/02 09:40:17;;;;;;;3.40;0.63;;;;;;;;;;5085748;28;20444;-69
2023/04/02 09:42:44;;;;;;;3.13;0.60;;;;;;;;;;5086752;28;20078;-69
2023/04/02 09:45:13;;;;;;;6.60;0.60;;;;;;;;;;5087591;28;20507;-69
2023/04/02 09:47:42;;;;;;;3.33;0.55;;;;;;;;;;5087382;28;20051;-69
2023/04/02 09:50:24;;;;;;;2.47;0.52;;;;;;;;;;5086652;28;20354;-69
2023/04/02 09:52:52;;;;;;;7.32;0.70;;;;;;;;;;5086748;28;20486;-69
2023/04/02 09:55:21;;;;;;;7.72;0.88;;;;;;;;;;5085950;28;20056;-69
2023/04/02 09:57:49;;;;;;;3.03;0.50;;;;;;;;;;5086154;28;20053;-69
2023/04/02 10:00:20;;;;;;;3.70;0.60;;;;;;;;;;5081994;28;20056;-69
2023/04/02 10:03:02;;;;;;;4.60;0.60;;;;;;;;;;5081649;28;20049;-70
2023/04/02 10:05:30;;;;;;;3.30;0.50;;;;;;;;;;5084596;28;20048;-69
2023/04/02 10:08:07;;;;;;;5.40;0.85;;;;;;;;;;5088322;28;20101;-69
2023/04/02 10:10:37;;;;;;;4.82;0.80;;;;;;;;;;5088316;28;20047;-69
2023/04/02 10:13:07;;;;;;;5.25;0.63;;;;;;;;;;5084700;28;20494;-67
2023/04/02 10:15:37;;;;;;;2.88;0.50;;;;;;;;;;5087472;28;20055;-66
2023/04/02 10:18:11;;;;;;;2.58;0.60;;;;;;;;;;5084137;28;20063;-66
2023/04/02 10:20:40;;;;;;;2.40;0.45;;;;;;;;;;5082745;28;20522;-67
2023/04/02 10:23:11;;;;;;;7.97;0.90;;;;;;;;;;5084134;28;20446;-67
2023/04/02 10:25:42;;;;;;;4.85;0.65;;;;;;;;;;5086548;28;20070;-67
2023/04/02 10:28:13;;;;;;;4.80;0.45;;;;;;;;;;5085974;28;20047;-67
2023/04/02 10:30:44;;;;;;;6.78;0.93;;;;;;;;;;5086834;28;20070;-67
2023/04/02 10:33:14;;;;;;;3.72;0.60;;;;;;;;;;5082971;28;20177;-67
2023/04/02 10:35:44;;;;;;;3.60;0.80;;;;;;;;;;5086749;28;20083;-67
2023/04/02 10:38:38;;;;;;;5.95;0.50;;;;;;;;;;5083935;28;20055;-67
2023/04/02 10:41:13;;;;;;;2.85;0.50;;;;;;;;;;5026905;28;20091;-67
2023/04/02 10:43:54;;;;;;;2.35;0.68;;;;;;;;;;5083287;28;20406;-67
2023/04/02 10:46:23;;;;;;;5.80;0.60;;;;;;;;;;5086672;28;20043;-67
2023/04/02 10:48:55;;;;;;;3.67;0.65;;;;;;;;;;5085993;28;20052;-69
2023/04/02 10:51:29;;;;;;;4.00;0.50;;;;;;;;;;5084172;28;20440;-67
2023/04/02 10:54:01;;;;;;;9.45;0.82;;;;;;;;;;5081468;28;20054;-65
2023/04/02 10:56:29;;;;;;;5.18;0.63;;;;;;;;;;5079104;28;20055;-67
2023/04/02 10:58:59;;;;;;;3.78;0.63;;;;;;;;;;5061382;28;20048;-68
2023/04/02 11:01:29;;;;;;;5.82;0.70;;;;;;;;;;5086495;28;20048;-67
2023/04/02 11:04:00;;;;;;;6.80;0.73;;;;;;;;;;5086040;28;20083;-67
2023/04/02 11:06:31;;;;;;;4.38;0.70;;;;;;;;;;5081904;28;20048;-67
2023/04/02 11:09:02;;;;;;;5.03;0.93;;;;;;;;;;5086161;28;20507;-67
2023/04/02 11:11:31;;;;;;;4.38;0.98;;;;;;;;;;5066379;28;20075;-67
2023/04/02 11:14:00;;;;;;;3.33;0.65;;;;;;;;;;5085433;28;20060;-67
2023/04/02 11:16:27;;;;;;;5.18;0.70;;;;;;;;;;5066351;28;20560;-67
2023/04/02 11:19:21;;;;;;;4.70;0.77;;;;;;;;;;5079592;28;20051;-67
2023/04/02 11:21:50;;;;;;;7.03;0.90;;;;;;;;;;5084617;28;20045;-73
2023/04/02 11:24:41;;;;;;;7.13;1.58;;;;;;;;;;5084806;28;20054;-73
2023/04/02 11:27:15;;;;;;;5.63;0.80;;;;;;;;;;5046736;28;20054;-73
2023/04/02 11:29:44;;;;;;;7.97;0.75;;;;;;;;;;5083134;28;20040;-73
2023/04/02 11:32:31;;;;;;;4.93;0.88;;;;;;;;;;5064515;28;20052;-73
2023/04/02 11:35:14;;;;;;;3.22;0.73;;;;;;;;;;5081286;28;20052;-73
2023/04/02 11:37:43;;;;;;;7.55;1.00;;;;;;;;;;5083068;28;20051;-73
2023/04/02 11:40:29;;;;;;;2.88;0.70;;;;;;;;;;5085909;28;20071;-74
2023/04/02 11:42:57;;;;;;;3.80;0.65;;;;;;;;;;5082088;28;20056;-74
2023/04/02 11:45:42;;;;;;;5.75;0.60;;;;;;;;;;5076835;28;20487;-74
2023/04/02 11:48:29;;;;;;;3.40;0.80;;;;;;;;;;5084962;28;20105;-74
2023/04/02 11:50:57;;;;;;;4.07;0.70;;;;;;;;;;5084873;28;20089;-74
2023/04/02 11:53:31;;;;;;;2.00;0.50;;;;;;;;;;5086224;28;20044;-74
2023/04/02 11:56:19;;;;;;;5.90;0.93;;;;;;;;;;5084921;28;20071;-74
2023/04/02 11:58:57;;;;;;;4.38;0.88;;;;;;;;;;5079104;28;20406;-74
2023/04/02 12:01:44;;;;;;;5.85;0.80;;;;;;;;;;5064179;28;20060;-74
2023/04/02 12:04:36;;;;;;;4.72;0.80;;;;;;;;;;5065439;28;20109;-74
2023/04/02 12:07:18;;;;;;;3.05;0.68;;;;;;;;;;5084026;28;20535;-74
2023/04/02 12:09:48;;;;;;;2.33;0.60;;;;;;;;;;5088648;28;20430;-74
2023/04/02 12:12:23;;;;;;;5.47;0.80;;;;;;;;;;5086794;28;20047;-74
2023/04/02 12:14:52;;;;;;;5.10;0.73;;;;;;;;;;5071197;28;20056;-74
2023/04/02 12:17:25;;;;;;;5.72;0.77;;;;;;;;;;5068425;28;20052;-74
2023/04/02 12:19:56;;;;;;;5.15;1.20;;;;;;;;;;5086759;28;20040;-74
2023/04/02 12:22:24;;;;;;;5.63;1.33;;;;;;;;;;5086492;28;20056;-74
2023/04/02 12:24:54;;;;;;;4.78;0.90;;;;;;;;;;5065865;28;20056;-74
2023/04/02 12:27:22;;;;;;;4.47;0.90;;;;;;;;;;5089277;28;20052;-74
2023/04/02 12:29:51;;;;;;;4.15;1.02;;;;;;;;;;5085074;28;20487;-74
2023/04/02 12:32:24;;;;;;;3.25;0.70;;;;;;;;;;5085402;28;20054;-74
2023/04/02 12:34:52;;;;;;;5.22;1.27;;;;;;;;;;5085440;28;20082;-74
2023/04/02 12:37:24;;;;;;;5.53;1.02;;;;;;;;;;5067793;28;20111;-74
2023/04/02 12:39:53;;;;;;;4.63;0.90;;;;;;;;;;5072035;28;20083;-74
2023/04/02 12:42:27;;;;;;;5.72;1.05;;;;;;;;;;5067814;28;20167;-74
2023/04/02 12:44:55;;;;;;;4.07;0.80;;;;;;;;;;5077488;28;20121;-74
2023/04/02 12:47:22;;;;;;;5.45;0.85;;;;;;;;;;5086447;28;20070;-74
2023/04/02 12:49:50;;;;;;;6.68;1.02;;;;;;;;;;5086097;28;20055;-74
2023/04/02 12:52:19;;;;;;;11.50;1.10;;;;;;;;;;5083635;28;20518;-74
2023/04/02 12:54:48;;;;;;;3.42;0.82;;;;;;;;;;5086362;28;20483;-74
2023/04/02 12:57:23;;;;;;;6.05;1.10;;;;;;;;;;5067933;28;20056;-74
2023/04/02 12:59:52;;;;;;;5.20;1.17;;;;;;;;;;5085778;28;20036;-74
2023/04/02 13:02:21;;;;;;;4.25;0.80;;;;;;;;;;5081746;28;20047;-74
2023/04/02 13:04:49;;;;;;;3.70;0.80;;;;;;;;;;5084873;28;20067;-74
2023/04/02 13:07:17;;;;;;;5.10;0.93;;;;;;;;;;5087671;28;20418;-74
2023/04/02 13:09:47;;;;;;;3.05;0.82;;;;;;;;;;5088362;28;20044;-74
2023/04/02 13:12:25;;;;;;;8.23;1.50;;;;;;;;;;5083492;28;20044;-75
2023/04/02 13:14:54;;;;;;;7.72;1.15;;;;;;;;;;5085834;28;20079;-75
2023/04/02 13:17:38;;;;;;;2.88;1.00;;;;;;;;;;5087675;28;20047;-74
2023/04/02 13:20:24;;;;;;;2.80;1.00;;;;;;;;;;5079769;28;20051;-74
2023/04/02 13:22:51;;;;;;;3.60;0.90;;;;;;;;;;5083150;28;20514;-74
2023/04/02 13:25:18;;;;;;;3.03;0.90;;;;;;;;;;5084594;28;20056;-75
2023/04/02 13:27:47;;;;;;;4.38;1.10;;;;;;;;;;5086721;28;20420;-74
2023/04/02 13:30:21;;;;;;;3.42;1.00;;;;;;;;;;5089265;28;20055;-74
2023/04/02 13:32:48;;;;;;;6.43;1.20;;;;;;;;;;5086767;28;20060;-74
2023/04/02 13:35:15;;;;;;;2.70;0.80;;;;;;;;;;5084597;28;20040;-75
2023/04/02 13:37:43;;;;;;;3.35;0.88;;;;;;;;;;5084760;28;20055;-75
2023/04/02 13:40:13;;;;;;;3.13;0.98;;;;;;;;;;5087005;28;20052;-75
2023/04/02 13:42:41;;;;;;;5.18;1.08;;;;;;;;;;5084903;28;20051;-75
2023/04/02 13:45:17;;;;;;;4.40;0.93;;;;;;;;;;5086546;28;20745;-75
2023/04/02 13:47:44;;;;;;;4.03;1.17;;;;;;;;;;5087448;28;20055;-75
2023/04/02 13:50:16;;;;;;;4.68;1.00;;;;;;;;;;5084454;28;20795;-74
2023/04/02 13:52:43;;;;;;;4.25;1.40;;;;;;;;;;5081389;28;20427;-75
2023/04/02 13:55:11;;;;;;;4.13;0.90;;;;;;;;;;5085772;28;20044;-75
2023/04/02 13:57:38;;;;;;;3.15;1.20;;;;;;;;;;5081969;28;20044;-75
2023/04/02 14:00:06;;;;;;;5.68;0.90;;;;;;;;;;5084312;28;20048;-75
2023/04/02 14:02:34;;;;;;;4.22;1.20;;;;;;;;;;5085442;28;20044;-74
2023/04/02 14:05:09;;;;;;;3.95;1.20;;;;;;;;;;5081350;28;20499;-75
2023/04/02 14:07:44;;;;;;;4.60;0.80;;;;;;;;;;5065154;28;20134;-75
2023/04/02 14:10:21;;;;;;;2.20;0.90;;;;;;;;;;5085705;28;20411;-75
2023/04/02 14:13:12;;;;;;;2.30;1.30;;;;;;;;;;5084269;28;20542;-74
2023/04/02 14:15:46;;;;;;;2.60;1.30;;;;;;;;;;5068462;28;20546;-75
2023/04/02 14:18:21;;;;;;;4.80;1.00;;;;;;;;;;5084152;28;20056;-75
2023/04/02 14:20:53;;;;;;;4.03;1.20;;;;;;;;;;5081846;28;20048;-74
2023/04/02 14:23:30;;;;;;;4.22;1.20;;;;;;;;;;5086319;28;20505;-75
2023/04/02 14:26:01;;;;;;;4.05;1.20;;;;;;;;;;5085531;28;20052;-74
2023/04/02 14:28:36;;;;;;;2.95;1.10;;;;;;;;;;5087098;28;20063;-75
2023/04/02 14:31:07;;;;;;;2.92;1.20;;;;;;;;;;5085894;28;20068;-74
2023/04/02 14:33:43;;;;;;;4.70;1.10;;;;;;;;;;5089024;28;20048;-75
2023/04/02 14:36:13;;;;;;;7.72;1.75;;;;;;;;;;5086075;28;20132;-75
2023/04/02 14:38:43;;;;;;;4.25;1.23;;;;;;;;;;5087529;28;20052;-75
2023/04/02 14:41:15;;;;;;;5.63;1.30;;;;;;;;;;5087556;28;20424;-75
2023/04/02 14:43:46;;;;;;;5.35;1.15;;;;;;;;;;5062056;28;20052;-75
2023/04/02 14:46:13;;;;;;;4.55;1.20;;;;;;;;;;5082981;28;20052;-74
2023/04/02 14:48:47;;;;;;;5.65;1.45;;;;;;;;;;5081861;28;20044;-75
2023/04/02 14:51:18;;;;;;;2.65;1.20;;;;;;;;;;5082415;28;20131;-74
2023/04/02 14:53:50;;;;;;;3.35;1.10;;;;;;;;;;5081415;28;20521;-75
2023/04/02 14:56:18;;;;;;;3.08;1.25;;;;;;;;;;5082143;28;20426;-74
2023/04/02 14:58:50;;;;;;;4.40;1.27;;;;;;;;;;5066535;28;20058;-73
2023/04/02 15:01:20;;;;;;;5.10;1.40;;;;;;;;;;5082633;28;20052;-73
2023/04/02 15:03:54;;;;;;;7.13;1.23;;;;;;;;;;5083150;28;20048;-72
2023/04/02 15:06:23;;;;;;;6.13;1.30;;;;;;;;;;5083588;28;20126;-72